Terminal Aerodrome Forecast
Issued by NWS

Current Version | Previous Version | Text Only | Print | Product List | Glossary On
Versions: 1 2 3 4 5 6 7 8 9 10 11 12 13 14 15 16 17 18 19 20 21 22 23 24
505
FTUS46 KEKA 181906 AAA
TAFCEC
TAF AMD
KCEC 181906Z 1819/1918 17019G27KT 4SM -RA BR SCT014 SCT024 OVC035
      TEMPO 1819/1823 16028G34KT 2SM RA BR SCT008 SCT012 OVC024
     FM190000 17015G22KT 4SM -RA BR SCT015 OVC025
     FM190400 18011KT 4SM -RA BR SCT015 OVC025
     FM190800 18011KT 4SM -RA BR SCT020 OVC050=

USA.gov is the U.S. government's official web portal to all federal, state and local government web resources and services.